sensor_id;sensor_type;location;lat;lon;timestamp;pressure;altitude;pressure_sealevel;temperature;humidity
51053;BME280;37093;37.716;-122.060;2023-07-09T00:01:22;99683.15;;;17.04;49.02
51053;BME280;37093;37.716;-122.060;2023-07-09T00:03:51;99681.48;;;18.28;45.39
51053;BME280;37093;37.716;-122.060;2023-07-09T00:06:20;99683.49;;;17.04;48.52
51053;BME280;37093;37.716;-122.060;2023-07-09T00:08:47;99679.86;;;18.04;45.61
51053;BME280;37093;37.716;-122.060;2023-07-09T00:11:17;99677.16;;;18.51;44.66
51053;BME280;37093;37.716;-122.060;2023-07-09T00:13:45;99678.93;;;19.13;44.03
51053;BME280;37093;37.716;-122.060;2023-07-09T00:16:16;99671.75;;;18.41;45.76
51053;BME280;37093;37.716;-122.060;2023-07-09T00:18:46;99670.36;;;18.79;45.04
51053;BME280;37093;37.716;-122.060;2023-07-09T00:21:15;99667.45;;;18.99;43.87
51053;BME280;37093;37.716;-122.060;2023-07-09T00:23:43;99665.43;;;18.39;46.62
51053;BME280;37093;37.716;-122.060;2023-07-09T00:26:13;99671.70;;;18.36;45.37
51053;BME280;37093;37.716;-122.060;2023-07-09T00:28:42;99671.34;;;19.48;42.49
51053;BME280;37093;37.716;-122.060;2023-07-09T00:31:12;99673.58;;;18.54;44.77
51053;BME280;37093;37.716;-122.060;2023-07-09T00:33:41;99676.60;;;17.67;47.19
51053;BME280;37093;37.716;-122.060;2023-07-09T00:36:14;99673.39;;;17.38;47.43
51053;BME280;37093;37.716;-122.060;2023-07-09T00:38:42;99676.30;;;17.52;46.72
51053;BME280;37093;37.716;-122.060;2023-07-09T00:41:15;99675.45;;;17.50;47.34
51053;BME280;37093;37.716;-122.060;2023-07-09T00:43:46;99676.62;;;17.61;46.82
51053;BME280;37093;37.716;-122.060;2023-07-09T00:47:11;99682.49;;;18.01;45.96
51053;BME280;37093;37.716;-122.060;2023-07-09T00:49:43;99676.67;;;17.91;46.83
51053;BME280;37093;37.716;-122.060;2023-07-09T00:52:20;99678.35;;;18.25;45.66
51053;BME280;37093;37.716;-122.060;2023-07-09T00:54:52;99678.88;;;18.08;45.75
51053;BME280;37093;37.716;-122.060;2023-07-09T00:57:24;99677.31;;;17.11;49.09
51053;BME280;37093;37.716;-122.060;2023-07-09T00:59:57;99673.70;;;17.35;48.54
51053;BME280;37093;37.716;-122.060;2023-07-09T01:02:27;99672.63;;;18.00;45.54
51053;BME280;37093;37.716;-122.060;2023-07-09T01:04:58;99668.39;;;18.63;44.85
51053;BME280;37093;37.716;-122.060;2023-07-09T01:07:28;99669.24;;;18.79;45.04
51053;BME280;37093;37.716;-122.060;2023-07-09T01:09:57;99672.51;;;17.41;48.33
51053;BME280;37093;37.716;-122.060;2023-07-09T01:12:26;99669.87;;;17.03;49.63
51053;BME280;37093;37.716;-122.060;2023-07-09T01:14:56;99668.90;;;18.03;47.46
51053;BME280;37093;37.716;-122.060;2023-07-09T01:17:26;99669.26;;;17.66;46.28
51053;BME280;37093;37.716;-122.060;2023-07-09T01:19:55;99662.72;;;18.43;45.88
51053;BME280;37093;37.716;-122.060;2023-07-09T01:22:25;99665.33;;;18.95;44.44
51053;BME280;37093;37.716;-122.060;2023-07-09T01:24:56;99673.07;;;17.50;47.95
51053;BME280;37093;37.716;-122.060;2023-07-09T01:27:28;99677.10;;;16.80;49.15
51053;BME280;37093;37.716;-122.060;2023-07-09T01:29:58;99673.86;;;16.92;49.08
51053;BME280;37093;37.716;-122.060;2023-07-09T01:32:26;99678.92;;;17.12;49.27
51053;BME280;37093;37.716;-122.060;2023-07-09T01:35:02;99680.61;;;16.90;49.82
51053;BME280;37093;37.716;-122.060;2023-07-09T01:37:32;99680.85;;;17.22;49.12
51053;BME280;37093;37.716;-122.060;2023-07-09T01:40:02;99682.96;;;16.38;50.72
51053;BME280;37093;37.716;-122.060;2023-07-09T01:42:30;99685.24;;;16.05;51.86
51053;BME280;37093;37.716;-122.060;2023-07-09T01:44:59;99684.16;;;16.13;52.20
51053;BME280;37093;37.716;-122.060;2023-07-09T01:47:27;99685.57;;;16.72;50.73
51053;BME280;37093;37.716;-122.060;2023-07-09T01:49:56;99683.19;;;17.44;48.75
51053;BME280;37093;37.716;-122.060;2023-07-09T01:52:26;99680.41;;;17.31;48.37
51053;BME280;37093;37.716;-122.060;2023-07-09T01:54:56;99689.04;;;17.40;48.55
51053;BME280;37093;37.716;-122.060;2023-07-09T01:57:26;99689.77;;;16.91;50.10
51053;BME280;37093;37.716;-122.060;2023-07-09T01:59:55;99687.56;;;15.60;53.33
51053;BME280;37093;37.716;-122.060;2023-07-09T02:02:24;99687.72;;;16.33;51.46
51053;BME280;37093;37.716;-122.060;2023-07-09T02:04:54;99680.92;;;17.23;49.39
51053;BME280;37093;37.716;-122.060;2023-07-09T02:07:23;99688.58;;;16.30;52.80
51053;BME280;37093;37.716;-122.060;2023-07-09T02:09:52;99688.84;;;16.83;50.99
51053;BME280;37093;37.716;-122.060;2023-07-09T02:12:20;99688.22;;;15.85;51.96
51053;BME280;37093;37.716;-122.060;2023-07-09T02:14:49;99692.29;;;14.99;55.90
51053;BME280;37093;37.716;-122.060;2023-07-09T02:17:18;99691.73;;;15.81;53.32
51053;BME280;37093;37.716;-122.060;2023-07-09T02:19:46;99693.94;;;15.78;53.49
51053;BME280;37093;37.716;-122.060;2023-07-09T02:22:15;99694.35;;;15.39;53.10
51053;BME280;37093;37.716;-122.060;2023-07-09T02:24:43;99700.21;;;16.44;52.95
51053;BME280;37093;37.716;-122.060;2023-07-09T02:27:15;99693.20;;;15.70;53.57
51053;BME280;37093;37.716;-122.060;2023-07-09T02:29:45;99694.88;;;15.64;54.74
51053;BME280;37093;37.716;-122.060;2023-07-09T02:32:17;99698.45;;;15.82;53.07
51053;BME280;37093;37.716;-122.060;2023-07-09T02:34:46;99697.63;;;14.41;57.64
51053;BME280;37093;37.716;-122.060;2023-07-09T02:37:15;99693.49;;;15.60;54.55
51053;BME280;37093;37.716;-122.060;2023-07-09T02:39:43;99697.54;;;15.20;55.71
51053;BME280;37093;37.716;-122.060;2023-07-09T02:42:12;99698.42;;;15.59;54.96
51053;BME280;37093;37.716;-122.060;2023-07-09T02:44:41;99694.53;;;15.53;54.33
51053;BME280;37093;37.716;-122.060;2023-07-09T02:47:10;99699.51;;;15.47;54.15
51053;BME280;37093;37.716;-122.060;2023-07-09T02:49:39;99699.74;;;14.85;56.93
51053;BME280;37093;37.716;-122.060;2023-07-09T02:52:09;99703.98;;;14.55;57.71
51053;BME280;37093;37.716;-122.060;2023-07-09T02:54:37;99702.26;;;15.59;56.26
51053;BME280;37093;37.716;-122.060;2023-07-09T02:57:06;99707.64;;;13.76;61.14
51053;BME280;37093;37.716;-122.060;2023-07-09T02:59:35;99698.87;;;14.64;57.82
51053;BME280;37093;37.716;-122.060;2023-07-09T03:02:04;99700.34;;;14.08;59.23
51053;BME280;37093;37.716;-122.060;2023-07-09T03:04:32;99701.27;;;14.61;57.69
51053;BME280;37093;37.716;-122.060;2023-07-09T03:07:01;99697.60;;;15.02;55.85
51053;BME280;37093;37.716;-122.060;2023-07-09T03:09:29;99698.00;;;15.36;55.09
51053;BME280;37093;37.716;-122.060;2023-07-09T03:11:58;99699.13;;;15.32;54.59
51053;BME280;37093;37.716;-122.060;2023-07-09T03:14:26;99702.95;;;14.40;57.84
51053;BME280;37093;37.716;-122.060;2023-07-09T03:16:55;99705.95;;;14.32;59.59
51053;BME280;37093;37.716;-122.060;2023-07-09T03:19:23;99706.50;;;14.52;58.65
51053;BME280;37093;37.716;-122.060;2023-07-09T03:21:52;99704.82;;;14.97;56.96
51053;BME280;37093;37.716;-122.060;2023-07-09T03:24:20;99705.72;;;15.05;56.92
51053;BME280;37093;37.716;-122.060;2023-07-09T03:26:49;99709.13;;;14.78;55.73
51053;BME280;37093;37.716;-122.060;2023-07-09T03:29:17;99713.73;;;15.11;56.47
51053;BME280;37093;37.716;-122.060;2023-07-09T03:31:46;99721.50;;;14.78;56.83
51053;BME280;37093;37.716;-122.060;2023-07-09T03:34:14;99723.34;;;14.72;57.92
51053;BME280;37093;37.716;-122.060;2023-07-09T03:36:43;99725.16;;;14.24;58.26
51053;BME280;37093;37.716;-122.060;2023-07-09T03:39:12;99723.35;;;13.77;60.89
51053;BME280;37093;37.716;-122.060;2023-07-09T03:41:40;99721.26;;;14.70;57.55
51053;BME280;37093;37.716;-122.060;2023-07-09T03:44:09;99722.59;;;14.84;58.31
51053;BME280;37093;37.716;-122.060;2023-07-09T03:46:37;99720.93;;;13.88;60.51
51053;BME280;37093;37.716;-122.060;2023-07-09T03:49:06;99720.75;;;14.67;57.36
51053;BME280;37093;37.716;-122.060;2023-07-09T03:51:34;99718.94;;;13.00;63.12
51053;BME280;37093;37.716;-122.060;2023-07-09T03:54:03;99716.32;;;14.15;59.25
51053;BME280;37093;37.716;-122.060;2023-07-09T03:56:31;99716.12;;;15.10;56.16
51053;BME280;37093;37.716;-122.060;2023-07-09T03:59:00;99720.53;;;15.30;55.76
51053;BME280;37093;37.716;-122.060;2023-07-09T04:01:28;99721.22;;;14.71;56.67
51053;BME280;37093;37.716;-122.060;2023-07-09T04:03:56;99717.14;;;14.48;58.67
51053;BME280;37093;37.716;-122.060;2023-07-09T04:06:25;99720.47;;;14.48;57.59
51053;BME280;37093;37.716;-122.060;2023-07-09T04:08:53;99722.70;;;14.86;56.02
51053;BME280;37093;37.716;-122.060;2023-07-09T04:11:22;99726.29;;;14.90;56.00
51053;BME280;37093;37.716;-122.060;2023-07-09T04:13:51;99727.38;;;14.31;57.49
51053;BME280;37093;37.716;-122.060;2023-07-09T04:16:19;99729.95;;;15.03;57.00
51053;BME280;37093;37.716;-122.060;2023-07-09T04:18:48;99728.80;;;15.28;56.01
51053;BME280;37093;37.716;-122.060;2023-07-09T04:21:17;99731.77;;;14.96;55.72
51053;BME280;37093;37.716;-122.060;2023-07-09T04:23:46;99732.62;;;14.61;55.84
51053;BME280;37093;37.716;-122.060;2023-07-09T04:26:15;99732.78;;;15.39;54.40
51053;BME280;37093;37.716;-122.060;2023-07-09T04:28:43;99735.68;;;14.56;57.82
51053;BME280;37093;37.716;-122.060;2023-07-09T04:31:11;99735.74;;;14.62;57.36
51053;BME280;37093;37.716;-122.060;2023-07-09T04:33:40;99732.97;;;14.97;56.90
51053;BME280;37093;37.716;-122.060;2023-07-09T04:36:08;99740.21;;;14.08;59.36
51053;BME280;37093;37.716;-122.060;2023-07-09T04:38:37;99741.22;;;14.69;57.13
51053;BME280;37093;37.716;-122.060;2023-07-09T04:41:05;99742.15;;;14.02;59.67
51053;BME280;37093;37.716;-122.060;2023-07-09T04:43:34;99746.83;;;14.25;59.01
51053;BME280;37093;37.716;-122.060;2023-07-09T04:46:03;99748.89;;;14.68;57.75
51053;BME280;37093;37.716;-122.060;2023-07-09T04:48:31;99755.26;;;14.29;58.53
51053;BME280;37093;37.716;-122.060;2023-07-09T04:51:00;99758.18;;;14.49;59.64
51053;BME280;37093;37.716;-122.060;2023-07-09T04:53:28;99761.67;;;13.76;60.76
51053;BME280;37093;37.716;-122.060;2023-07-09T04:55:57;99762.37;;;15.00;56.07
51053;BME280;37093;37.716;-122.060;2023-07-09T04:58:25;99768.62;;;14.30;60.05
51053;BME280;37093;37.716;-122.060;2023-07-09T05:00:57;99763.70;;;13.70;60.24
51053;BME280;37093;37.716;-122.060;2023-07-09T05:03:25;99766.33;;;14.57;57.98
51053;BME280;37093;37.716;-122.060;2023-07-09T05:05:54;99765.18;;;14.88;56.98
51053;BME280;37093;37.716;-122.060;2023-07-09T05:08:22;99769.13;;;15.03;56.05
51053;BME280;37093;37.716;-122.060;2023-07-09T05:10:52;99768.79;;;14.98;56.44
51053;BME280;37093;37.716;-122.060;2023-07-09T05:13:20;99771.97;;;15.15;55.80
51053;BME280;37093;37.716;-122.060;2023-07-09T05:15:49;99775.51;;;13.74;59.74
51053;BME280;37093;37.716;-122.060;2023-07-09T05:18:18;99776.20;;;14.82;57.05
51053;BME280;37093;37.716;-122.060;2023-07-09T05:20:48;99777.09;;;15.67;53.97
51053;BME280;37093;37.716;-122.060;2023-07-09T05:23:16;99781.83;;;15.62;54.33
51053;BME280;37093;37.716;-122.060;2023-07-09T05:25:45;99782.60;;;14.65;56.82
51053;BME280;37093;37.716;-122.060;2023-07-09T05:28:13;99779.01;;;14.86;57.63
51053;BME280;37093;37.716;-122.060;2023-07-09T05:47:18;99795.96;;;14.32;60.82
51053;BME280;37093;37.716;-122.060;2023-07-09T05:49:45;99786.84;;;12.94;58.68
51053;BME280;37093;37.716;-122.060;2023-07-09T05:52:13;99784.98;;;13.24;55.53
51053;BME280;37093;37.716;-122.060;2023-07-09T05:54:41;99785.69;;;15.45;54.59
51053;BME280;37093;37.716;-122.060;2023-07-09T05:57:10;99789.95;;;15.31;55.07
51053;BME280;37093;37.716;-122.060;2023-07-09T05:59:38;99783.96;;;14.00;58.33
51053;BME280;37093;37.716;-122.060;2023-07-09T06:02:11;99783.10;;;13.88;59.05
51053;BME280;37093;37.716;-122.060;2023-07-09T06:04:39;99783.55;;;13.99;58.87
51053;BME280;37093;37.716;-122.060;2023-07-09T06:07:08;99780.83;;;14.08;58.70
51053;BME280;37093;37.716;-122.060;2023-07-09T06:09:36;99778.54;;;14.12;58.40
51053;BME280;37093;37.716;-122.060;2023-07-09T06:12:05;99776.26;;;15.08;55.53
51053;BME280;37093;37.716;-122.060;2023-07-09T06:14:34;99775.05;;;14.57;56.46
51053;BME280;37093;37.716;-122.060;2023-07-09T06:17:03;99770.74;;;14.47;57.83
51053;BME280;37093;37.716;-122.060;2023-07-09T06:19:31;99776.81;;;12.91;63.76
51053;BME280;37093;37.716;-122.060;2023-07-09T06:22:00;99769.90;;;14.04;59.20
51053;BME280;37093;37.716;-122.060;2023-07-09T06:24:28;99768.43;;;14.74;56.97
51053;BME280;37093;37.716;-122.060;2023-07-09T06:26:57;99768.99;;;15.05;55.33
51053;BME280;37093;37.716;-122.060;2023-07-09T06:29:25;99764.95;;;13.09;62.25
51053;BME280;37093;37.716;-122.060;2023-07-09T06:31:54;99760.74;;;13.91;60.29
51053;BME280;37093;37.716;-122.060;2023-07-09T06:34:22;99762.33;;;13.91;60.00
51053;BME280;37093;37.716;-122.060;2023-07-09T06:36:51;99769.11;;;13.19;62.56
51053;BME280;37093;37.716;-122.060;2023-07-09T06:39:19;99771.01;;;12.57;63.92
51053;BME280;37093;37.716;-122.060;2023-07-09T06:41:49;99763.92;;;13.64;62.06
51053;BME280;37093;37.716;-122.060;2023-07-09T06:44:17;99763.46;;;13.88;61.96
51053;BME280;37093;37.716;-122.060;2023-07-09T06:46:46;99766.35;;;13.54;61.59
51053;BME280;37093;37.716;-122.060;2023-07-09T06:49:14;99764.94;;;13.78;62.26
51053;BME280;37093;37.716;-122.060;2023-07-09T06:51:43;99766.22;;;12.79;64.02
51053;BME280;37093;37.716;-122.060;2023-07-09T06:54:12;99761.60;;;13.58;62.00
51053;BME280;37093;37.716;-122.060;2023-07-09T06:56:40;99764.06;;;13.60;62.40
51053;BME280;37093;37.716;-122.060;2023-07-09T06:59:09;99765.91;;;13.93;60.15
51053;BME280;37093;37.716;-122.060;2023-07-09T07:01:11;99763.08;;;13.07;61.56
51053;BME280;37093;37.716;-122.060;2023-07-09T07:03:40;99758.53;;;12.76;57.37
51053;BME280;37093;37.716;-122.060;2023-07-09T07:06:08;99758.84;;;14.35;56.10
51053;BME280;37093;37.716;-122.060;2023-07-09T07:08:37;99756.16;;;13.91;59.76
51053;BME280;37093;37.716;-122.060;2023-07-09T07:11:06;99755.30;;;14.87;56.80
51053;BME280;37093;37.716;-122.060;2023-07-09T07:13:36;99751.42;;;14.74;57.04
51053;BME280;37093;37.716;-122.060;2023-07-09T07:16:06;99757.29;;;14.99;55.61
51053;BME280;37093;37.716;-122.060;2023-07-09T07:18:35;99754.47;;;15.22;54.59
51053;BME280;37093;37.716;-122.060;2023-07-09T07:21:04;99760.06;;;14.17;58.49
51053;BME280;37093;37.716;-122.060;2023-07-09T07:23:32;99760.26;;;13.35;61.59
51053;BME280;37093;37.716;-122.060;2023-07-09T07:26:00;99758.08;;;13.36;60.85
51053;BME280;37093;37.716;-122.060;2023-07-09T07:28:29;99760.40;;;14.12;59.48
51053;BME280;37093;37.716;-122.060;2023-07-09T07:31:01;99756.01;;;14.02;60.93
51053;BME280;37093;37.716;-122.060;2023-07-09T07:33:30;99752.10;;;14.29;59.11
51053;BME280;37093;37.716;-122.060;2023-07-09T07:35:58;99751.04;;;14.19;59.52
51053;BME280;37093;37.716;-122.060;2023-07-09T07:38:27;99751.99;;;13.49;62.26
51053;BME280;37093;37.716;-122.060;2023-07-09T07:40:55;99750.16;;;14.44;59.34
51053;BME280;37093;37.716;-122.060;2023-07-09T07:43:24;99743.15;;;13.81;61.18
51053;BME280;37093;37.716;-122.060;2023-07-09T07:45:52;99745.96;;;13.29;62.63
51053;BME280;37093;37.716;-122.060;2023-07-09T07:48:20;99745.00;;;14.11;60.60
51053;BME280;37093;37.716;-122.060;2023-07-09T07:50:49;99738.35;;;13.52;61.81
51053;BME280;37093;37.716;-122.060;2023-07-09T07:53:17;99737.07;;;14.46;59.56
51053;BME280;37093;37.716;-122.060;2023-07-09T07:55:46;99735.03;;;13.80;59.99
51053;BME280;37093;37.716;-122.060;2023-07-09T07:58:14;99732.49;;;13.81;60.41
51053;BME280;37093;37.716;-122.060;2023-07-09T08:00:43;99734.27;;;13.43;59.97
51053;BME280;37093;37.716;-122.060;2023-07-09T08:03:11;99731.05;;;14.92;56.29
51053;BME280;37093;37.716;-122.060;2023-07-09T08:05:40;99728.69;;;14.41;58.12
51053;BME280;37093;37.716;-122.060;2023-07-09T08:08:08;99728.22;;;15.03;56.36
51053;BME280;37093;37.716;-122.060;2023-07-09T08:10:37;99728.16;;;14.99;57.17
51053;BME280;37093;37.716;-122.060;2023-07-09T08:13:06;99729.29;;;15.30;56.58
51053;BME280;37093;37.716;-122.060;2023-07-09T08:15:34;99730.37;;;13.99;58.95
51053;BME280;37093;37.716;-122.060;2023-07-09T08:18:03;99727.22;;;14.51;56.33
51053;BME280;37093;37.716;-122.060;2023-07-09T08:20:31;99725.93;;;13.89;59.11
51053;BME280;37093;37.716;-122.060;2023-07-09T08:23:00;99725.09;;;14.33;57.32
51053;BME280;37093;37.716;-122.060;2023-07-09T08:25:28;99724.81;;;14.39;57.11
51053;BME280;37093;37.716;-122.060;2023-07-09T08:27:57;99729.16;;;14.77;57.30
51053;BME280;37093;37.716;-122.060;2023-07-09T08:30:25;99725.27;;;14.20;58.07
51053;BME280;37093;37.716;-122.060;2023-07-09T08:32:54;99723.51;;;14.66;57.84
51053;BME280;37093;37.716;-122.060;2023-07-09T08:35:22;99724.27;;;13.44;60.09
51053;BME280;37093;37.716;-122.060;2023-07-09T08:37:51;99720.94;;;13.68;59.19
51053;BME280;37093;37.716;-122.060;2023-07-09T08:40:20;99717.87;;;14.80;56.88
51053;BME280;37093;37.716;-122.060;2023-07-09T08:42:53;99720.04;;;14.41;57.84
51053;BME280;37093;37.716;-122.060;2023-07-09T08:45:33;99719.25;;;14.34;58.03
51053;BME280;37093;37.716;-122.060;2023-07-09T08:48:08;99720.79;;;14.49;58.04
51053;BME280;37093;37.716;-122.060;2023-07-09T08:50:43;99722.17;;;13.55;62.50
51053;BME280;37093;37.716;-122.060;2023-07-09T08:53:18;99723.18;;;13.71;59.23
51053;BME280;37093;37.716;-122.060;2023-07-09T08:55:49;99723.06;;;13.87;59.39
51053;BME280;37093;37.716;-122.060;2023-07-09T08:58:24;99726.00;;;13.95;58.55
51053;BME280;37093;37.716;-122.060;2023-07-09T09:00:55;99721.45;;;13.69;62.09
51053;BME280;37093;37.716;-122.060;2023-07-09T09:03:30;99722.38;;;13.41;62.83
51053;BME280;37093;37.716;-122.060;2023-07-09T09:06:02;99723.90;;;12.61;62.37
51053;BME280;37093;37.716;-122.060;2023-07-09T09:08:41;99719.54;;;13.90;61.15
51053;BME280;37093;37.716;-122.060;2023-07-09T09:11:19;99723.75;;;13.61;60.16
51053;BME280;37093;37.716;-122.060;2023-07-09T09:13:51;99725.14;;;13.71;59.84
51053;BME280;37093;37.716;-122.060;2023-07-09T09:16:26;99723.05;;;13.25;62.88
51053;BME280;37093;37.716;-122.060;2023-07-09T09:18:58;99726.22;;;13.85;60.72
51053;BME280;37093;37.716;-122.060;2023-07-09T09:21:31;99723.80;;;13.70;61.51
51053;BME280;37093;37.716;-122.060;2023-07-09T09:24:14;99726.41;;;14.52;58.86
51053;BME280;37093;37.716;-122.060;2023-07-09T09:26:43;99724.38;;;14.37;58.76
51053;BME280;37093;37.716;-122.060;2023-07-09T09:29:14;99721.48;;;13.35;62.05
51053;BME280;37093;37.716;-122.060;2023-07-09T09:31:45;99719.59;;;13.82;59.81
51053;BME280;37093;37.716;-122.060;2023-07-09T09:34:23;99716.50;;;13.86;58.31
51053;BME280;37093;37.716;-122.060;2023-07-09T09:36:52;99718.52;;;13.60;60.09
51053;BME280;37093;37.716;-122.060;2023-07-09T09:39:22;99721.90;;;13.88;60.04
51053;BME280;37093;37.716;-122.060;2023-07-09T09:41:53;99719.11;;;13.95;58.85
51053;BME280;37093;37.716;-122.060;2023-07-09T09:44:25;99717.50;;;14.01;57.79
51053;BME280;37093;37.716;-122.060;2023-07-09T09:46:57;99719.59;;;13.64;59.74
51053;BME280;37093;37.716;-122.060;2023-07-09T09:49:25;99719.67;;;13.67;59.94
51053;BME280;37093;37.716;-122.060;2023-07-09T09:51:53;99725.75;;;12.76;61.45
51053;BME280;37093;37.716;-122.060;2023-07-09T09:54:26;99723.67;;;13.93;59.79
51053;BME280;37093;37.716;-122.060;2023-07-09T09:56:56;99727.47;;;13.85;59.00
51053;BME280;37093;37.716;-122.060;2023-07-09T09:59:29;99729.02;;;13.04;63.13
51053;BME280;37093;37.716;-122.060;2023-07-09T10:02:00;99732.77;;;12.54;64.53
51053;BME280;37093;37.716;-122.060;2023-07-09T10:04:28;99734.28;;;11.73;69.44
51053;BME280;37093;37.716;-122.060;2023-07-09T10:07:01;99727.41;;;13.22;62.18
51053;BME280;37093;37.716;-122.060;2023-07-09T10:09:45;99728.58;;;12.35;64.11
51053;BME280;37093;37.716;-122.060;2023-07-09T10:12:23;99724.47;;;13.14;62.55
51053;BME280;37093;37.716;-122.060;2023-07-09T10:14:59;99730.62;;;11.59;67.04
51053;BME280;37093;37.716;-122.060;2023-07-09T10:17:36;99723.36;;;13.84;60.86
51053;BME280;37093;37.716;-122.060;2023-07-09T10:20:11;99723.75;;;12.96;62.81
51053;BME280;37093;37.716;-122.060;2023-07-09T10:22:52;99719.74;;;13.34;61.36
51053;BME280;37093;37.716;-122.060;2023-07-09T10:25:33;99728.43;;;13.39;60.16
51053;BME280;37093;37.716;-122.060;2023-07-09T10:28:23;99725.42;;;14.27;58.44
51053;BME280;37093;37.716;-122.060;2023-07-09T10:31:03;99724.10;;;13.28;62.74
51053;BME280;37093;37.716;-122.060;2023-07-09T10:33:43;99721.06;;;13.03;63.18
51053;BME280;37093;37.716;-122.060;2023-07-09T10:36:23;99725.06;;;12.61;63.89
51053;BME280;37093;37.716;-122.060;2023-07-09T10:38:59;99718.86;;;13.48;61.89
51053;BME280;37093;37.716;-122.060;2023-07-09T10:41:29;99724.31;;;13.09;62.37
51053;BME280;37093;37.716;-122.060;2023-07-09T10:44:01;99727.27;;;12.63;64.68
51053;BME280;37093;37.716;-122.060;2023-07-09T10:46:37;99719.62;;;13.26;61.45
51053;BME280;37093;37.716;-122.060;2023-07-09T10:49:10;99721.95;;;14.14;58.91
51053;BME280;37093;37.716;-122.060;2023-07-09T10:51:42;99710.59;;;13.50;61.19
51053;BME280;37093;37.716;-122.060;2023-07-09T10:54:18;99712.24;;;13.21;61.14
51053;BME280;37093;37.716;-122.060;2023-07-09T10:56:53;99711.74;;;12.90;62.55
51053;BME280;37093;37.716;-122.060;2023-07-09T10:59:29;99718.03;;;12.37;64.12
51053;BME280;37093;37.716;-122.060;2023-07-09T11:02:14;99711.50;;;13.83;59.83
51053;BME280;37093;37.716;-122.060;2023-07-09T11:04:48;99708.43;;;13.88;60.06
51053;BME280;37093;37.716;-122.060;2023-07-09T11:07:26;99708.13;;;14.35;58.20
51053;BME280;37093;37.716;-122.060;2023-07-09T11:09:58;99712.71;;;14.05;58.58
51053;BME280;37093;37.716;-122.060;2023-07-09T11:12:34;99711.87;;;12.96;62.24
51053;BME280;37093;37.716;-122.060;2023-07-09T11:15:08;99710.67;;;13.72;60.03
51053;BME280;37093;37.716;-122.060;2023-07-09T11:17:40;99720.65;;;12.28;65.95
51053;BME280;37093;37.716;-122.060;2023-07-09T11:20:18;99712.39;;;13.67;60.18
51053;BME280;37093;37.716;-122.060;2023-07-09T11:22:53;99714.49;;;13.08;62.48
51053;BME280;37093;37.716;-122.060;2023-07-09T11:25:31;99712.82;;;13.08;62.17
51053;BME280;37093;37.716;-122.060;2023-07-09T11:28:07;99716.10;;;13.08;62.06
51053;BME280;37093;37.716;-122.060;2023-07-09T11:30:48;99714.23;;;13.50;61.65
51053;BME280;37093;37.716;-122.060;2023-07-09T11:33:19;99716.00;;;13.02;62.43
51053;BME280;37093;37.716;-122.060;2023-07-09T11:35:50;99715.65;;;13.36;60.41
51053;BME280;37093;37.716;-122.060;2023-07-09T11:38:21;99716.86;;;13.07;60.76
51053;BME280;37093;37.716;-122.060;2023-07-09T11:40:51;99718.67;;;13.57;60.50
51053;BME280;37093;37.716;-122.060;2023-07-09T11:43:29;99716.57;;;13.70;60.57
51053;BME280;37093;37.716;-122.060;2023-07-09T11:46:05;99726.60;;;13.40;63.10
51053;BME280;37093;37.716;-122.060;2023-07-09T11:48:36;99731.40;;;12.62;63.81
51053;BME280;37093;37.716;-122.060;2023-07-09T11:51:10;99722.95;;;13.24;63.12
51053;BME280;37093;37.716;-122.060;2023-07-09T11:53:45;99723.23;;;13.24;62.09
51053;BME280;37093;37.716;-122.060;2023-07-09T11:56:15;99720.64;;;13.71;60.92
51053;BME280;37093;37.716;-122.060;2023-07-09T11:58:54;99727.66;;;13.70;59.66
51053;BME280;37093;37.716;-122.060;2023-07-09T12:01:26;99729.36;;;14.23;58.53
51053;BME280;37093;37.716;-122.060;2023-07-09T12:03:57;99736.91;;;12.88;64.96
51053;BME280;37093;37.716;-122.060;2023-07-09T12:06:29;99732.75;;;13.42;63.04
51053;BME280;37093;37.716;-122.060;2023-07-09T12:08:58;99727.39;;;13.55;60.40
51053;BME280;37093;37.716;-122.060;2023-07-09T12:11:28;99725.26;;;13.26;61.38
51053;BME280;37093;37.716;-122.060;2023-07-09T12:14:03;99725.91;;;13.81;60.02
51053;BME280;37093;37.716;-122.060;2023-07-09T12:16:35;99733.76;;;13.93;59.05
51053;BME280;37093;37.716;-122.060;2023-07-09T12:19:04;99733.52;;;13.87;59.40
51053;BME280;37093;37.716;-122.060;2023-07-09T12:21:37;99738.88;;;12.68;62.77
51053;BME280;37093;37.716;-122.060;2023-07-09T12:24:18;99740.63;;;13.35;60.23
51053;BME280;37093;37.716;-122.060;2023-07-09T12:26:49;99742.91;;;13.56;59.70
51053;BME280;37093;37.716;-122.060;2023-07-09T12:29:17;99743.57;;;13.73;59.98
51053;BME280;37093;37.716;-122.060;2023-07-09T12:31:46;99750.46;;;13.56;60.34
51053;BME280;37093;37.716;-122.060;2023-07-09T12:34:14;99745.26;;;13.64;60.64
51053;BME280;37093;37.716;-122.060;2023-07-09T12:36:46;99745.71;;;13.50;60.82
51053;BME280;37093;37.716;-122.060;2023-07-09T12:39:18;99752.11;;;13.05;61.34
51053;BME280;37093;37.716;-122.060;2023-07-09T12:41:48;99749.76;;;12.07;65.51
51053;BME280;37093;37.716;-122.060;2023-07-09T12:44:20;99752.31;;;11.97;66.42
51053;BME280;37093;37.716;-122.060;2023-07-09T12:46:50;99754.04;;;12.08;65.59
51053;BME280;37093;37.716;-122.060;2023-07-09T12:49:23;99752.83;;;12.42;64.44
51053;BME280;37093;37.716;-122.060;2023-07-09T12:51:54;99751.59;;;12.72;62.60
51053;BME280;37093;37.716;-122.060;2023-07-09T12:54:23;99753.10;;;12.79;63.21
51053;BME280;37093;37.716;-122.060;2023-07-09T12:56:52;99749.91;;;12.99;62.11
51053;BME280;37093;37.716;-122.060;2023-07-09T12:59:23;99745.43;;;14.22;57.96
51053;BME280;37093;37.716;-122.060;2023-07-09T13:01:57;99742.66;;;13.93;58.71
51053;BME280;37093;37.716;-122.060;2023-07-09T13:04:30;99745.72;;;14.06;59.15